createdAt,value
2022-09-30T00:01:39.745Z,8.90
2022-09-30T00:04:10.627Z,8.90
2022-09-30T00:06:40.049Z,8.90
2022-09-30T00:09:08.281Z,8.80
2022-09-30T00:11:39.288Z,8.80
2022-09-30T00:14:13.444Z,8.80
2022-09-30T00:16:41.561Z,8.80
2022-09-30T00:19:09.818Z,8.80
2022-09-30T00:21:39.265Z,8.80
2022-09-30T00:24:07.873Z,8.80
2022-09-30T00:26:36.637Z,8.70
2022-09-30T00:29:06.129Z,8.70
2022-09-30T00:31:35.905Z,8.70
2022-09-30T00:34:08.220Z,8.70
2022-09-30T00:36:39.873Z,8.70
2022-09-30T00:39:09.571Z,8.70
2022-09-30T00:41:38.343Z,8.60
2022-09-30T00:44:39.860Z,8.60
2022-09-30T00:47:39.315Z,8.60
2022-09-30T00:50:17.038Z,8.50
2022-09-30T00:52:51.690Z,8.50
2022-09-30T00:55:30.743Z,8.50
2022-09-30T00:58:02.845Z,8.50
2022-09-30T01:00:31.499Z,8.50
2022-09-30T01:03:01.734Z,8.50
2022-09-30T01:05:33.422Z,8.50
2022-09-30T01:08:05.642Z,8.50
2022-09-30T01:10:33.920Z,8.60
2022-09-30T01:13:02.240Z,8.60
2022-09-30T01:15:47.186Z,8.60
2022-09-30T01:18:26.311Z,8.60
2022-09-30T01:21:41.847Z,8.60
2022-09-30T01:24:34.314Z,8.50
2022-09-30T01:27:13.681Z,8.50
2022-09-30T01:30:04.155Z,8.50
2022-09-30T01:33:11.224Z,8.50
2022-09-30T01:35:57.234Z,8.40
2022-09-30T01:38:29.474Z,8.40
2022-09-30T01:41:08.982Z,8.40
2022-09-30T01:43:46.207Z,8.40
2022-09-30T01:46:24.751Z,8.40
2022-09-30T01:49:00.475Z,8.40
2022-09-30T01:51:40.946Z,8.40
2022-09-30T01:54:18.801Z,8.40
2022-09-30T01:56:51.093Z,8.40
2022-09-30T01:59:24.193Z,8.40
2022-09-30T02:01:59.142Z,8.40
2022-09-30T02:04:32.394Z,8.40
2022-09-30T02:07:06.814Z,8.40
2022-09-30T02:09:40.129Z,8.40
2022-09-30T02:12:16.740Z,8.40
2022-09-30T02:14:49.895Z,8.40
2022-09-30T02:17:21.803Z,8.40
2022-09-30T02:19:55.009Z,8.40
2022-09-30T02:22:29.988Z,8.40
2022-09-30T02:25:02.051Z,8.40
2022-09-30T02:27:40.456Z,8.30
2022-09-30T02:30:11.879Z,8.30
2022-09-30T02:32:45.730Z,8.30
2022-09-30T02:35:20.075Z,8.30
2022-09-30T02:37:52.194Z,8.30
2022-09-30T02:40:26.866Z,8.30
2022-09-30T02:42:57.724Z,8.30
2022-09-30T02:45:26.895Z,8.40
2022-09-30T02:48:06.004Z,8.40
2022-09-30T02:50:40.298Z,8.40
2022-09-30T02:53:24.185Z,8.40
2022-09-30T02:56:19.367Z,8.40
2022-09-30T02:58:48.429Z,8.40
2022-09-30T03:01:18.054Z,8.40
2022-09-30T03:03:50.564Z,8.40
2022-09-30T03:06:19.983Z,8.40
2022-09-30T03:08:49.671Z,8.40
2022-09-30T03:11:27.844Z,8.40
2022-09-30T03:14:24.173Z,8.40
2022-09-30T03:17:41.775Z,8.40
2022-09-30T03:20:45.941Z,8.40
2022-09-30T03:23:40.837Z,8.40
2022-09-30T03:26:19.558Z,8.40
2022-09-30T03:29:00.839Z,8.40
2022-09-30T03:31:41.303Z,8.50
2022-09-30T03:34:19.998Z,8.50
2022-09-30T03:36:55.205Z,8.50
2022-09-30T03:42:59.549Z,8.50
2022-09-30T03:45:42.435Z,8.50
2022-09-30T03:48:30.198Z,8.50
2022-09-30T03:51:08.709Z,8.50
2022-09-30T03:57:29.206Z,8.50
2022-09-30T04:00:19.576Z,8.40
2022-09-30T04:03:11.396Z,8.40
2022-09-30T04:06:52.984Z,8.40
2022-09-30T04:20:14.847Z,8.30
2022-09-30T04:22:24.255Z,8.30
2022-09-30T04:25:03.545Z,8.20
2022-09-30T04:27:48.410Z,8.20
2022-09-30T04:31:06.248Z,8.20
2022-09-30T04:33:47.455Z,8.30
2022-09-30T04:36:23.700Z,8.30
2022-09-30T04:39:02.441Z,8.20
2022-09-30T04:41:34.204Z,8.20
2022-09-30T04:44:11.311Z,8.20
2022-09-30T04:46:43.755Z,8.20
2022-09-30T04:49:12.103Z,8.20
2022-09-30T04:51:46.211Z,8.10
2022-09-30T04:54:27.922Z,8.10
2022-09-30T04:57:07.581Z,8.10
2022-09-30T04:59:38.728Z,8.10
2022-09-30T05:02:13.316Z,8.10
2022-09-30T05:04:50.643Z,8.00
2022-09-30T05:07:28.072Z,8.00
2022-09-30T05:10:13.758Z,8.00
2022-09-30T05:13:03.511Z,8.00
2022-09-30T05:16:35.042Z,8.00
2022-09-30T05:20:11.112Z,8.00
2022-09-30T05:22:57.245Z,8.00
2022-09-30T05:25:31.505Z,8.00
2022-09-30T05:28:08.815Z,8.00
2022-09-30T05:30:58.590Z,8.00
2022-09-30T05:33:37.817Z,8.00
2022-09-30T05:36:08.338Z,8.00
2022-09-30T05:38:42.368Z,8.00
2022-09-30T05:41:15.607Z,8.00
2022-09-30T05:43:53.538Z,8.00
2022-09-30T05:46:33.418Z,8.00
2022-09-30T05:49:07.885Z,8.00
2022-09-30T05:51:36.801Z,8.10
2022-09-30T05:54:13.342Z,8.10
2022-09-30T05:56:49.684Z,8.10
2022-09-30T05:59:20.887Z,8.10
2022-09-30T06:01:52.565Z,8.10
2022-09-30T06:04:21.695Z,8.10
2022-09-30T06:06:50.105Z,8.10
2022-09-30T06:09:20.097Z,8.10
2022-09-30T06:11:51.052Z,8.10
2022-09-30T06:14:20.360Z,8.10
2022-09-30T06:16:50.962Z,8.20
2022-09-30T06:19:19.683Z,8.20
2022-09-30T06:21:48.072Z,8.20
2022-09-30T06:24:16.404Z,8.20
2022-09-30T06:26:45.950Z,8.30
2022-09-30T06:29:14.521Z,8.30
2022-09-30T06:31:45.098Z,8.30
2022-09-30T06:34:13.750Z,8.30
2022-09-30T06:36:44.934Z,8.40
2022-09-30T06:39:13.963Z,8.50
2022-09-30T06:41:44.225Z,9.00
2022-09-30T06:44:27.232Z,9.30
2022-09-30T06:46:55.792Z,9.40
2022-09-30T06:49:24.358Z,9.40
2022-09-30T06:51:52.673Z,9.30
2022-09-30T06:54:21.921Z,9.30
2022-09-30T06:56:52.994Z,9.20
2022-09-30T06:59:21.233Z,9.20
2022-09-30T07:01:53.523Z,9.40
2022-09-30T07:04:25.005Z,10.00
2022-09-30T07:06:54.969Z,11.00
2022-09-30T07:09:23.243Z,11.50
2022-09-30T07:11:51.544Z,11.50
2022-09-30T07:14:19.607Z,11.50
2022-09-30T07:16:47.786Z,11.50
2022-09-30T07:19:17.794Z,11.50
2022-09-30T07:21:45.951Z,12.10
2022-09-30T07:24:14.150Z,12.70
2022-09-30T07:26:42.264Z,13.10
2022-09-30T07:29:10.277Z,13.80
2022-09-30T07:31:39.815Z,14.30
2022-09-30T07:34:09.982Z,14.50
2022-09-30T07:36:41.782Z,14.60
2022-09-30T07:39:11.777Z,14.80
2022-09-30T07:41:41.182Z,15.10
2022-09-30T07:44:14.186Z,15.30
2022-09-30T07:46:43.737Z,15.30
2022-09-30T07:49:15.175Z,15.20
2022-09-30T07:51:45.613Z,15.00
2022-09-30T07:54:43.305Z,14.90
2022-09-30T07:57:13.450Z,14.70
2022-09-30T07:59:43.245Z,15.00
2022-09-30T08:02:15.979Z,15.70
2022-09-30T08:04:44.802Z,16.60
2022-09-30T08:07:15.979Z,17.60
2022-09-30T08:09:44.092Z,18.20
2022-09-30T08:12:12.189Z,18.80
2022-09-30T08:14:40.312Z,19.20
2022-09-30T08:17:08.315Z,19.70
2022-09-30T08:19:36.472Z,20.20
2022-09-30T08:22:06.308Z,20.70
2022-09-30T08:24:35.674Z,21.10
2022-09-30T08:27:03.727Z,20.80
2022-09-30T08:32:19.841Z,21.40
2022-09-30T08:34:47.846Z,21.30
2022-09-30T08:37:15.948Z,21.20
2022-09-30T08:39:48.500Z,21.20
2022-09-30T08:42:37.735Z,20.90
2022-09-30T08:45:18.144Z,20.40
2022-09-30T08:47:55.567Z,20.30
2022-09-30T08:50:30.210Z,20.00
2022-09-30T08:53:02.156Z,20.00
2022-09-30T08:55:39.492Z,20.40
2022-09-30T08:58:12.141Z,20.70
2022-09-30T09:00:42.891Z,20.70
2022-09-30T09:03:14.384Z,20.70
2022-09-30T09:05:52.662Z,21.10
2022-09-30T09:08:30.407Z,21.40
2022-09-30T09:11:08.994Z,21.70
2022-09-30T09:13:51.150Z,22.10
2022-09-30T09:16:25.274Z,22.30
2022-09-30T09:19:00.194Z,22.40
2022-09-30T09:21:41.264Z,22.50
2022-09-30T09:24:16.943Z,22.40
2022-09-30T09:26:47.780Z,22.00
2022-09-30T09:29:33.485Z,21.40
2022-09-30T09:32:03.366Z,20.80
2022-09-30T09:34:33.949Z,20.20
2022-09-30T09:37:16.242Z,19.60
2022-09-30T09:40:04.684Z,19.00
2022-09-30T09:42:48.776Z,18.50
2022-09-30T09:45:24.339Z,18.30
2022-09-30T09:47:53.333Z,18.20
2022-09-30T09:50:26.918Z,18.40
2022-09-30T09:53:20.392Z,18.90
2022-09-30T09:55:50.311Z,19.00
2022-09-30T09:58:19.852Z,18.80
2022-09-30T10:01:21.823Z,18.50
2022-09-30T10:04:10.844Z,18.40
2022-09-30T10:06:47.742Z,18.60
2022-09-30T10:09:30.886Z,19.00
2022-09-30T10:12:30.585Z,19.80
2022-09-30T10:15:12.789Z,20.10
2022-09-30T10:17:41.241Z,20.40
2022-09-30T10:20:22.117Z,20.40
2022-09-30T10:22:50.206Z,20.80
2022-09-30T10:25:22.974Z,20.50
2022-09-30T10:27:57.272Z,19.40
2022-09-30T10:30:36.597Z,19.10
2022-09-30T10:33:05.428Z,19.00
2022-09-30T10:35:33.591Z,18.90
2022-09-30T10:38:02.655Z,18.70
2022-09-30T10:40:36.305Z,18.40
2022-09-30T10:43:04.831Z,18.00
2022-09-30T10:45:41.506Z,17.70
2022-09-30T10:48:18.894Z,17.60
2022-09-30T10:50:52.373Z,17.40
2022-09-30T10:53:24.758Z,17.30
2022-09-30T10:55:59.874Z,17.20
2022-09-30T10:58:39.201Z,17.20
2022-09-30T11:01:20.439Z,17.20
2022-09-30T11:04:08.401Z,17.20
2022-09-30T11:06:42.707Z,17.20
2022-09-30T11:09:18.605Z,17.10
2022-09-30T11:11:54.334Z,17.00
2022-09-30T11:14:38.517Z,16.90
2022-09-30T11:17:48.022Z,16.80
2022-09-30T11:20:41.057Z,16.80
2022-09-30T11:23:25.874Z,16.70
2022-09-30T11:26:29.449Z,16.70
2022-09-30T11:29:39.984Z,16.70
2022-09-30T11:33:25.455Z,16.70
2022-09-30T11:36:38.882Z,16.70
2022-09-30T11:40:27.865Z,16.80
2022-09-30T11:43:52.740Z,16.80
2022-09-30T11:47:28.063Z,16.50
2022-09-30T11:56:29.964Z,16.50
2022-09-30T11:58:41.190Z,16.50
2022-09-30T12:02:04.503Z,16.50
2022-09-30T12:05:22.840Z,16.50
2022-09-30T12:08:27.598Z,16.50
2022-09-30T12:11:26.382Z,16.50
2022-09-30T12:14:13.339Z,16.60
2022-09-30T12:16:51.351Z,17.10
2022-09-30T12:19:26.250Z,17.20
2022-09-30T12:22:00.080Z,17.40
2022-09-30T12:24:40.988Z,17.80
2022-09-30T12:27:45.222Z,18.10
2022-09-30T12:30:23.172Z,18.40
2022-09-30T12:33:17.934Z,18.70
2022-09-30T12:36:27.673Z,18.80
2022-09-30T12:39:43.292Z,18.80
2022-09-30T12:42:36.231Z,18.80
2022-09-30T12:45:30.210Z,18.50
2022-09-30T12:48:00.371Z,18.70
2022-09-30T12:50:31.113Z,18.80
2022-09-30T12:53:01.354Z,18.80
2022-09-30T12:55:43.939Z,19.10
2022-09-30T12:58:28.528Z,19.40
2022-09-30T13:01:02.760Z,19.60
2022-09-30T13:03:46.117Z,19.80
2022-09-30T13:06:16.895Z,19.90
2022-09-30T13:09:07.087Z,20.00
2022-09-30T13:11:46.771Z,19.90
2022-09-30T13:14:34.890Z,19.80
2022-09-30T13:17:20.585Z,19.60
2022-09-30T13:19:51.890Z,19.50
2022-09-30T13:22:57.729Z,19.30
2022-09-30T13:25:55.347Z,19.00
2022-09-30T13:28:43.728Z,18.80
2022-09-30T13:31:30.821Z,18.80
2022-09-30T13:34:11.718Z,18.60
2022-09-30T13:36:57.892Z,18.40
2022-09-30T13:39:53.651Z,18.30
2022-09-30T13:42:48.333Z,17.60
2022-09-30T13:45:50.860Z,17.50
2022-09-30T13:49:08.651Z,17.30
2022-09-30T13:54:48.910Z,17.00
2022-09-30T13:57:58.182Z,16.90
2022-09-30T14:02:22.004Z,16.80
2022-09-30T14:09:55.582Z,16.60
2022-09-30T14:13:31.236Z,16.50
2022-09-30T14:17:10.495Z,16.40
2022-09-30T14:20:39.710Z,16.40
2022-09-30T14:28:03.507Z,16.30
2022-09-30T14:36:01.813Z,16.20
2022-09-30T14:39:02.693Z,16.20
2022-09-30T14:42:05.816Z,16.10
2022-09-30T14:45:42.225Z,16.20
2022-09-30T14:55:52.795Z,16.40
2022-09-30T14:58:28.702Z,16.40
2022-09-30T15:01:51.916Z,16.30
2022-09-30T15:05:17.233Z,16.30
2022-09-30T15:08:17.534Z,16.20
2022-09-30T15:11:22.909Z,16.30
2022-09-30T15:15:13.503Z,16.40
2022-09-30T15:17:53.325Z,16.30
2022-09-30T15:21:13.884Z,16.30
2022-09-30T15:23:53.435Z,16.10
2022-09-30T15:26:24.987Z,16.00
2022-09-30T15:28:56.505Z,15.90
2022-09-30T15:31:36.974Z,15.80
2022-09-30T15:34:23.162Z,15.70
2022-09-30T15:37:06.985Z,15.60
2022-09-30T15:39:56.102Z,15.40
2022-09-30T15:42:40.887Z,15.30
2022-09-30T15:45:43.183Z,15.10
2022-09-30T15:48:40.514Z,15.00
2022-09-30T15:51:31.480Z,14.80
2022-09-30T15:54:05.498Z,14.70
2022-09-30T15:56:43.859Z,14.60
2022-09-30T15:59:15.619Z,14.50
2022-09-30T16:01:49.286Z,14.50
2022-09-30T16:04:31.669Z,14.40
2022-09-30T16:07:47.511Z,14.30
2022-09-30T16:10:24.818Z,14.30
2022-09-30T16:12:57.989Z,14.10
2022-09-30T16:15:35.593Z,14.10
2022-09-30T16:18:14.459Z,14.00
2022-09-30T16:21:04.272Z,13.90
2022-09-30T16:23:38.045Z,13.80
2022-09-30T16:26:29.830Z,13.80
2022-09-30T16:29:01.955Z,13.70
2022-09-30T16:31:31.100Z,13.60
2022-09-30T16:34:06.710Z,13.60
2022-09-30T16:36:37.672Z,13.50
2022-09-30T16:39:05.956Z,13.40
2022-09-30T16:41:35.564Z,13.40
2022-09-30T16:44:03.858Z,13.40
2022-09-30T16:46:33.365Z,13.30
2022-09-30T16:49:07.552Z,13.20
2022-09-30T16:51:35.759Z,13.10
2022-09-30T16:54:04.153Z,13.10
2022-09-30T16:56:32.662Z,13.00
2022-09-30T16:59:02.723Z,13.00
2022-09-30T17:01:31.257Z,12.90
2022-09-30T17:03:59.389Z,12.90
2022-09-30T17:06:30.529Z,12.80
2022-09-30T17:09:01.135Z,12.70
2022-09-30T17:11:34.031Z,12.70
2022-09-30T17:14:05.449Z,12.60
2022-09-30T17:16:36.400Z,12.60
2022-09-30T17:19:05.140Z,12.50
2022-09-30T17:21:33.253Z,12.40
2022-09-30T17:24:06.582Z,12.40
2022-09-30T17:26:44.211Z,12.40
2022-09-30T17:29:31.957Z,12.30
2022-09-30T17:32:00.971Z,12.30
2022-09-30T17:34:35.319Z,12.30
2022-09-30T17:37:03.560Z,12.30
2022-09-30T17:39:31.838Z,12.20
2022-09-30T17:42:17.406Z,12.20
2022-09-30T17:44:47.872Z,12.20
2022-09-30T17:47:16.002Z,12.10
2022-09-30T17:49:44.096Z,12.10
2022-09-30T17:52:16.842Z,12.10
2022-09-30T17:54:48.600Z,12.00
2022-09-30T17:57:19.628Z,12.00
2022-09-30T17:59:49.096Z,11.90
2022-09-30T18:02:17.743Z,11.90
2022-09-30T18:04:46.192Z,11.80
2022-09-30T18:07:14.208Z,11.70
2022-09-30T18:09:42.332Z,11.60
2022-09-30T18:12:12.300Z,11.50
2022-09-30T18:14:40.375Z,11.50
2022-09-30T18:17:09.840Z,11.40
2022-09-30T18:19:38.153Z,11.30
2022-09-30T18:22:06.288Z,11.20
2022-09-30T18:24:51.605Z,11.10
2022-09-30T18:27:21.526Z,11.00
2022-09-30T18:29:50.168Z,10.80
2022-09-30T18:32:19.698Z,10.70
2022-09-30T18:34:47.756Z,10.60
2022-09-30T18:37:15.909Z,10.50
2022-09-30T18:39:43.969Z,10.40
2022-09-30T18:42:38.203Z,10.40
2022-09-30T18:45:08.329Z,10.30
2022-09-30T18:47:37.823Z,10.20
2022-09-30T18:50:07.685Z,10.10
2022-09-30T18:52:38.774Z,10.00
2022-09-30T18:55:07.596Z,10.00
2022-09-30T18:57:35.704Z,9.90
2022-09-30T19:00:04.337Z,9.80
2022-09-30T19:02:34.546Z,9.80
2022-09-30T19:05:04.126Z,9.70
2022-09-30T19:07:34.441Z,9.70
2022-09-30T19:10:02.651Z,9.60
2022-09-30T19:12:33.328Z,9.50
2022-09-30T19:15:01.457Z,9.50
2022-09-30T19:17:32.567Z,9.40
2022-09-30T19:20:05.494Z,9.30
2022-09-30T19:22:41.899Z,9.30
2022-09-30T19:25:12.138Z,9.20
2022-09-30T19:27:41.463Z,9.20
2022-09-30T19:30:11.984Z,9.10
2022-09-30T19:32:40.943Z,9.10
2022-09-30T19:35:11.804Z,9.00
2022-09-30T19:37:57.041Z,9.00
2022-09-30T19:40:30.338Z,8.90
2022-09-30T19:42:58.612Z,8.90
2022-09-30T19:45:27.272Z,8.80
2022-09-30T19:47:56.765Z,8.80
2022-09-30T19:50:27.210Z,8.70
2022-09-30T19:52:57.876Z,8.70
2022-09-30T19:55:28.579Z,8.60
2022-09-30T19:57:59.252Z,8.60
2022-09-30T20:00:27.959Z,8.50
2022-09-30T20:02:58.218Z,8.50
2022-09-30T20:05:40.835Z,8.50
2022-09-30T20:12:17.491Z,8.30
2022-09-30T20:15:31.670Z,8.20
2022-09-30T20:21:44.497Z,8.10
2022-09-30T20:24:26.977Z,8.00
2022-09-30T20:26:55.524Z,8.00
2022-09-30T20:29:39.343Z,8.00
2022-09-30T20:32:28.528Z,8.00
2022-09-30T20:35:51.588Z,7.90
2022-09-30T20:38:27.857Z,7.90
2022-09-30T20:41:13.640Z,7.90
2022-09-30T20:43:52.086Z,7.80
2022-09-30T20:46:23.162Z,7.70
2022-09-30T20:48:59.456Z,7.60
2022-09-30T20:51:54.106Z,7.60
2022-09-30T20:54:24.937Z,7.50
2022-09-30T20:57:09.943Z,7.40
2022-09-30T20:59:38.533Z,7.40
2022-09-30T21:02:11.385Z,7.40
2022-09-30T21:04:49.570Z,7.30
2022-09-30T21:07:23.306Z,7.30
2022-09-30T21:09:53.082Z,7.30
2022-09-30T21:12:25.391Z,7.20
2022-09-30T21:14:54.135Z,7.10
2022-09-30T21:17:25.485Z,7.10
2022-09-30T21:19:53.750Z,7.20
2022-09-30T21:22:22.130Z,7.20
2022-09-30T21:24:58.173Z,7.10
2022-09-30T21:27:35.186Z,7.10
2022-09-30T21:30:07.518Z,7.10
2022-09-30T21:32:46.273Z,7.10
2022-09-30T21:35:18.547Z,7.10
2022-09-30T21:37:54.070Z,7.20
2022-09-30T21:40:29.321Z,7.10
2022-09-30T21:43:00.129Z,7.10
2022-09-30T21:45:38.347Z,7.10
2022-09-30T21:48:11.668Z,7.10
2022-09-30T21:50:43.312Z,7.10
2022-09-30T21:53:42.072Z,7.10
2022-09-30T21:56:13.508Z,7.10
2022-09-30T21:58:46.347Z,7.10
2022-09-30T22:01:27.121Z,7.10
2022-09-30T22:03:55.825Z,7.10
2022-09-30T22:06:24.612Z,7.10
2022-09-30T22:08:57.225Z,7.10
2022-09-30T22:11:28.467Z,7.10
2022-09-30T22:14:01.626Z,7.10
2022-09-30T22:16:38.528Z,7.20
2022-09-30T22:19:19.071Z,7.20
2022-09-30T22:21:51.127Z,7.20
2022-09-30T22:24:26.440Z,7.20
2022-09-30T22:27:04.069Z,7.20
2022-09-30T22:29:52.978Z,7.20
2022-09-30T22:32:24.292Z,7.20
2022-09-30T22:35:09.989Z,7.20
2022-09-30T22:37:58.618Z,7.10
2022-09-30T22:40:33.418Z,7.10
2022-09-30T22:43:05.488Z,7.10
2022-09-30T22:45:38.430Z,7.10
2022-09-30T22:48:10.020Z,7.10
2022-09-30T22:50:38.281Z,7.10
2022-09-30T22:53:08.582Z,7.10
2022-09-30T22:55:41.684Z,7.00
2022-09-30T22:58:28.261Z,7.00
2022-09-30T23:01:05.638Z,7.00
2022-09-30T23:03:37.006Z,6.90
2022-09-30T23:06:16.567Z,6.90
2022-09-30T23:09:10.281Z,6.90
2022-09-30T23:11:42.359Z,6.90
2022-09-30T23:14:13.298Z,6.80
2022-09-30T23:17:27.363Z,6.80
2022-09-30T23:21:03.930Z,6.80
2022-09-30T23:24:37.615Z,6.70
2022-09-30T23:28:01.546Z,6.70
2022-09-30T23:31:15.996Z,6.60
2022-09-30T23:34:05.854Z,6.60
2022-09-30T23:37:10.473Z,6.60
2022-09-30T23:39:38.713Z,6.60
2022-09-30T23:42:20.459Z,6.60
2022-09-30T23:44:48.803Z,6.70
2022-09-30T23:47:19.755Z,6.70
2022-09-30T23:56:38.131Z,6.80
2022-09-30T23:59:34.719Z,6.90
